Aérodrome :
LOGIN :

S'inscrire | Disclaimer

   EN    FR    IT 

 










Légende :    VFR   VFR Marginal   IFR   IFR Intensif   IFR Très Intensif
Visi : 
Plafond : 
>= 8 km
>= 3000ft
5 à 8 km
1000 à 3000 ft
1500m à 5 km
500 à 1000 ft
800 à 1500m
200 à 500 ft
< 800m
< 200 ft
Symboles :   Orages  Brouillard  Fortes neiges  Fortes précipitations  Vent > 20 kt
SIGMETs :   Divers  Orages  Givrage  Turbulence  Onde Orograph.  Cendres Volcan.







- Altitude de l'aérodrome : 2220 ft


LOXZ - Zeltweg AB

DERNIER METAR :
  • 221950Z 09009KT 9000 -SN FEW009ST OVC022SC M02/M05 Q1013

METARs EXPIRÉS :
  • 221850Z 09009KT 10KM -SN FEW009ST OVC027SC M02/M04 Q1013
  • 221750Z 07009KT 7000 -SN FEW008ST OVC027SC M01/M04 Q1013 NOSIG

TAF TAF LOXZ
Valide du 22 à 12h jusqu'au 22 à 21h UTC


221115Z 2212/2221 VRB03KT 6000 -SN FEW004SCT008 OVC030
TEMPO 2212/2217 05008KT 1400 SN SCT004 OVC012
PROB30
TEMPO 2212/2221 1000 BR SCT003 OVC005
Pas de NOTAMs connus pour ce terrain.



MET'MAP, la Météo Aéronautique d'un coup d'oeil ! - Copyright ORBIFLY Décembre 2007 - Disclaimer

ORBIFLY MET'MAP TEAM :

Programmation & Développement : Alexandra Zaïnal
Conception & Développement : Baudouin d'Aumeries
Co-Programmation & Développement : Marc-Olivier Méhu
Soutien technique & logistique : Manuel Goepfert

Contact : metmap@orbifly.com




SOURCES & CREDITS :

   NOAA